Time;durP1;ratioP1;P1;durP2;ratioP2;P2;SDS_P1;SDS_P2;PMS_P1;PMS_P2;Temp;Humidity;BMP_temperature;BMP_pressure;BME280_temperature;BME280_humidity;BME280_pressure;Samples;Min_cycle;Max_cycle;Signal;HPM_P1;HPM_P2
2023/03/09 00:00:55;;;;;;;0.50;0.10;;;8.90;99.90;;;;;;4994719;28;20492;-73
2023/03/09 00:03:23;;;;;;;0.50;0.10;;;8.90;99.90;;;;;;4996519;28;20452;-71
2023/03/09 00:05:56;;;;;;;0.50;0.10;;;9.00;99.90;;;;;;4995946;28;20495;-72
2023/03/09 00:08:24;;;;;;;0.50;0.10;;;9.00;99.90;;;;;;4994378;28;20859;-72
2023/03/09 00:10:53;;;;;;;0.50;0.20;;;9.00;99.90;;;;;;4993063;28;20468;-71
2023/03/09 00:13:23;;;;;;;0.50;0.20;;;9.00;99.90;;;;;;4992858;28;20452;-72
2023/03/09 00:15:51;;;;;;;0.70;0.70;;;9.00;99.90;;;;;;4992578;28;20445;-72
2023/03/09 00:18:19;;;;;;;1.60;1.50;;;9.00;99.90;;;;;;4993226;28;20880;-72
2023/03/09 00:20:47;;;;;;;3.60;3.30;;;8.90;99.90;;;;;;4993136;28;20488;-72
2023/03/09 00:23:18;;;;;;;0.50;0.10;;;8.90;99.90;;;;;;5002998;28;20450;-72
2023/03/09 00:25:46;;;;;;;0.50;0.20;;;8.80;99.90;;;;;;5005086;28;20500;-72
2023/03/09 00:28:15;;;;;;;0.50;0.10;;;8.70;99.90;;;;;;5004758;28;20444;-72
2023/03/09 00:30:43;;;;;;;1.73;1.37;;;8.70;99.90;;;;;;4992909;28;20463;-72
2023/03/09 00:33:11;;;;;;;0.50;0.20;;;8.70;99.90;;;;;;4992963;28;20545;-72
2023/03/09 00:35:38;;;;;;;0.50;0.10;;;8.70;99.90;;;;;;4992343;28;20445;-73
2023/03/09 00:38:06;;;;;;;0.50;0.10;;;8.80;99.90;;;;;;4992526;28;20548;-71
2023/03/09 00:40:34;;;;;;;0.50;0.10;;;8.90;99.90;;;;;;4992254;28;20950;-72
2023/03/09 00:43:02;;;;;;;0.60;0.50;;;8.90;99.90;;;;;;4992477;28;20448;-71
2023/03/09 00:45:31;;;;;;;0.50;0.20;;;8.90;99.90;;;;;;4992342;28;20452;-71
2023/03/09 00:47:58;;;;;;;0.50;0.17;;;8.90;1.00;;;;;;4992426;28;20450;-71
2023/03/09 00:50:26;;;;;;;0.50;0.30;;;8.90;1.00;;;;;;4992551;28;20445;-71
2023/03/09 00:52:54;;;;;;;0.50;0.17;;;8.90;1.00;;;;;;4992921;28;20527;-71
2023/03/09 00:55:22;;;;;;;0.80;0.40;;;8.90;1.00;;;;;;4995772;28;20441;-71
2023/03/09 00:57:49;;;;;;;0.50;0.10;;;9.00;1.00;;;;;;4996416;28;20460;-71
2023/03/09 05:02:13;;;;;;;0.50;0.13;;;10.00;1.00;;;;;;5287665;23;20485;-75
2023/03/09 05:04:41;;;;;;;0.50;0.10;;;9.90;1.00;;;;;;4983612;28;20497;-75
2023/03/09 05:07:09;;;;;;;4.17;3.93;;;9.90;1.00;;;;;;4978589;28;20843;-75
2023/03/09 05:09:37;;;;;;;0.50;0.10;;;9.90;1.00;;;;;;4978162;28;20437;-75
2023/03/09 05:12:05;;;;;;;0.50;0.10;;;9.90;1.00;;;;;;4979666;28;20812;-74
2023/03/09 05:14:33;;;;;;;0.50;0.10;;;9.90;1.00;;;;;;4995529;23;20486;-72
2023/03/09 05:17:01;;;;;;;0.50;0.10;;;11.60;1.00;;;;;;5016432;28;20448;-72
2023/03/09 05:19:30;;;;;;;0.50;0.10;;;9.90;1.00;;;;;;5015394;28;20455;-71
2023/03/09 05:21:58;;;;;;;0.50;0.10;;;9.90;1.00;;;;;;5017320;28;20483;-72
2023/03/09 05:24:26;;;;;;;0.50;0.10;;;9.90;1.00;;;;;;5016266;28;20452;-71
2023/03/09 05:26:53;;;;;;;0.50;0.10;;;9.90;1.00;;;;;;5015875;28;20455;-70
2023/03/09 05:29:21;;;;;;;0.50;0.10;;;9.90;1.00;;;;;;5015430;28;20462;-70
2023/03/09 05:31:49;;;;;;;0.50;0.10;;;9.90;1.00;;;;;;5015027;28;20914;-71
2023/03/09 05:34:17;;;;;;;0.60;0.20;;;;;;;;;;5014632;28;20962;-71
2023/03/09 05:36:46;;;;;;;0.50;0.10;;;9.90;1.00;;;;;;5014816;28;20444;-71
2023/03/09 05:39:14;;;;;;;0.50;0.20;;;9.90;1.00;;;;;;5014834;28;20455;-72
2023/03/09 05:41:42;;;;;;;0.50;0.10;;;9.80;1.00;;;;;;5015576;28;20479;-72
2023/03/09 05:44:13;;;;;;;0.50;0.10;;;9.80;1.00;;;;;;5015334;28;20471;-71
2023/03/09 05:46:42;;;;;;;0.50;0.10;;;9.80;1.00;;;;;;5015061;28;20464;-72
2023/03/09 05:49:10;;;;;;;0.70;0.60;;;9.80;1.00;;;;;;5014743;28;20444;-72
2023/03/09 05:51:38;;;;;;;0.50;0.10;;;9.80;1.00;;;;;;5014887;28;20455;-72
2023/03/09 05:54:07;;;;;;;0.50;0.10;;;9.80;1.00;;;;;;5014542;28;20443;-71
2023/03/09 05:56:35;;;;;;;0.50;0.10;;;9.80;1.00;;;;;;5014603;28;20507;-69
2023/03/09 05:59:03;;;;;;;0.50;0.10;;;9.80;1.00;;;;;;5014661;28;20529;-71
2023/03/09 06:01:31;;;;;;;0.60;0.33;;;10.60;1.00;;;;;;5014614;28;20449;-72
2023/03/09 06:03:59;;;;;;;0.80;0.30;;;9.80;1.00;;;;;;5010205;28;20463;-71
2023/03/09 06:06:27;;;;;;;0.90;0.67;;;9.80;1.00;;;;;;5014162;28;20460;-72
2023/03/09 06:08:56;;;;;;;0.50;0.10;;;9.80;1.00;;;;;;5014521;28;20467;-72
2023/03/09 06:11:25;;;;;;;0.50;0.10;;;9.80;1.00;;;;;;5014326;28;20456;-72
2023/03/09 06:13:54;;;;;;;0.50;0.10;;;9.80;1.00;;;;;;5013716;28;20455;-71
2023/03/09 06:16:22;;;;;;;0.50;0.10;;;9.80;1.00;;;;;;5013717;28;20464;-72
2023/03/09 06:18:50;;;;;;;0.50;0.10;;;9.80;1.00;;;;;;5014065;28;20942;-72
2023/03/09 06:21:18;;;;;;;0.50;0.10;;;9.80;1.00;;;;;;5014007;28;20451;-71
2023/03/09 06:23:46;;;;;;;0.50;0.10;;;9.80;1.00;;;;;;5014527;28;20542;-70
2023/03/09 06:26:14;;;;;;;0.50;0.10;;;9.80;1.00;;;;;;5014759;28;20555;-71
2023/03/09 06:28:46;;;;;;;0.50;0.10;;;9.80;1.00;;;;;;5015239;28;20452;-72
2023/03/09 06:31:15;;;;;;;0.50;0.10;;;9.80;1.00;;;;;;5015508;28;20444;-71
2023/03/09 06:33:45;;;;;;;0.60;0.20;;;9.90;1.00;;;;;;5014386;28;20533;-71
2023/03/09 06:36:15;;;;;;;0.50;0.10;;;9.80;1.00;;;;;;5014051;28;20466;-72
2023/03/09 06:38:43;;;;;;;0.50;0.20;;;9.80;1.00;;;;;;5013539;28;21154;-72
2023/03/09 06:41:14;;;;;;;0.50;0.10;;;9.80;1.00;;;;;;5013611;28;20440;-72
2023/03/09 06:43:45;;;;;;;0.50;0.10;;;9.80;1.00;;;;;;5013844;28;20482;-71
2023/03/09 06:46:13;;;;;;;0.50;0.10;;;9.90;1.00;;;;;;5013238;28;20996;-70
2023/03/09 06:48:41;;;;;;;0.50;0.10;;;9.90;1.00;;;;;;5013550;28;20452;-71
2023/03/09 06:51:08;;;;;;;2.70;0.33;;;9.90;1.00;;;;;;5013114;28;21222;-71
2023/03/09 06:53:36;;;;;;;0.50;0.10;;;9.90;1.00;;;;;;5013572;28;20526;-72
2023/03/09 06:56:04;;;;;;;0.50;0.10;;;9.90;1.00;;;;;;5013018;28;20465;-72
2023/03/09 06:58:33;;;;;;;0.50;0.20;;;9.90;1.00;;;;;;5013628;28;20445;-70
2023/03/09 07:01:07;;;;;;;0.50;0.10;;;9.90;1.00;;;;;;5011800;28;20983;-72
2023/03/09 07:03:36;;;;;;;0.50;0.20;;;9.90;1.00;;;;;;5012772;28;20479;-72
2023/03/09 07:06:05;;;;;;;0.70;0.30;;;9.90;1.00;;;;;;5012634;28;20499;-72
2023/03/09 07:08:33;;;;;;;1.03;0.73;;;9.90;1.00;;;;;;5012736;28;20448;-71
2023/03/09 07:11:01;;;;;;;0.60;0.30;;;9.80;1.00;;;;;;5013394;28;20452;-73
2023/03/09 07:13:29;;;;;;;0.50;0.23;;;9.80;1.00;;;;;;5012503;28;20444;-74
2023/03/09 07:15:57;;;;;;;0.50;0.20;;;9.80;1.00;;;;;;5012910;28;20478;-70
2023/03/09 07:18:26;;;;;;;0.50;0.10;;;9.90;1.00;;;;;;5013385;28;20444;-71
2023/03/09 07:20:54;;;;;;;4.40;0.50;;;9.80;1.00;;;;;;5013051;28;20496;-73
2023/03/09 07:23:22;;;;;;;0.60;0.20;;;9.90;1.00;;;;;;5013501;28;20472;-72
2023/03/09 07:25:50;;;;;;;3.47;0.30;;;9.90;1.00;;;;;;5013582;28;21132;-73
2023/03/09 07:28:17;;;;;;;0.50;0.10;;;9.90;1.00;;;;;;5013715;28;20456;-72
2023/03/09 07:30:45;;;;;;;0.50;0.10;;;9.90;1.00;;;;;;5013402;28;20479;-73
2023/03/09 07:33:14;;;;;;;0.50;0.10;;;10.00;1.00;;;;;;5013237;28;21004;-73
2023/03/09 07:35:43;;;;;;;0.50;0.10;;;10.00;1.00;;;;;;5012757;28;20966;-71
2023/03/09 07:38:11;;;;;;;0.63;0.43;;;10.00;1.00;;;;;;5013544;28;20451;-73
2023/03/09 07:40:39;;;;;;;0.50;0.33;;;10.00;1.00;;;;;;5012934;28;21005;-74
2023/03/09 07:43:07;;;;;;;0.50;0.10;;;10.00;1.00;;;;;;5012962;28;21036;-72
2023/03/09 07:45:34;;;;;;;0.50;0.10;;;10.10;1.00;;;;;;5013559;28;20872;-72
2023/03/09 07:48:03;;;;;;;2.20;1.03;;;10.10;1.00;;;;;;5022041;28;20449;-72
2023/03/09 07:50:31;;;;;;;0.60;0.20;;;10.10;1.00;;;;;;5023659;28;20440;-71
2023/03/09 07:53:00;;;;;;;0.50;0.10;;;10.10;1.00;;;;;;5021624;28;20462;-71
2023/03/09 07:55:29;;;;;;;0.50;0.10;;;10.10;1.00;;;;;;5012866;28;20468;-71
2023/03/09 07:57:57;;;;;;;2.93;1.03;;;10.10;1.00;;;;;;5012947;28;20535;-71
2023/03/09 08:00:27;;;;;;;0.97;0.67;;;10.20;1.00;;;;;;5012644;28;20451;-71
2023/03/09 08:02:56;;;;;;;0.50;0.10;;;10.20;1.00;;;;;;5012003;28;20496;-70
2023/03/09 08:05:25;;;;;;;0.87;0.67;;;10.20;1.00;;;;;;5011824;28;20464;-70
2023/03/09 08:07:53;;;;;;;0.50;0.10;;;10.20;1.00;;;;;;5011898;28;20444;-72
2023/03/09 08:10:23;;;;;;;0.50;0.20;;;10.20;1.00;;;;;;5012389;28;20818;-71
2023/03/09 08:12:51;;;;;;;3.60;2.53;;;10.20;1.00;;;;;;5013941;28;20483;-69
2023/03/09 08:15:22;;;;;;;0.80;0.30;;;10.20;1.00;;;;;;5014623;28;20483;-70
2023/03/09 08:17:50;;;;;;;0.50;0.10;;;10.20;1.00;;;;;;5014895;28;20543;-71
2023/03/09 08:20:18;;;;;;;1.00;0.57;;;10.20;1.00;;;;;;5012452;28;20459;-72
2023/03/09 08:22:46;;;;;;;4.27;0.73;;;10.20;1.00;;;;;;5005017;28;20850;-72
2023/03/09 08:25:14;;;;;;;0.80;0.57;;;10.20;1.00;;;;;;4992600;28;20486;-72
2023/03/09 08:27:46;;;;;;;0.50;0.10;;;10.20;1.00;;;;;;4993019;28;20440;-71
2023/03/09 08:30:15;;;;;;;0.50;0.10;;;10.30;1.00;;;;;;4992873;28;20444;-72
2023/03/09 08:32:46;;;;;;;0.50;0.10;;;10.30;1.00;;;;;;4993210;28;20441;-71
2023/03/09 08:35:14;;;;;;;0.93;0.83;;;10.40;1.00;;;;;;4992686;28;20489;-73
2023/03/09 08:37:42;;;;;;;9.80;0.63;;;10.30;1.00;;;;;;4994370;28;20449;-71
2023/03/09 08:40:11;;;;;;;0.50;0.10;;;10.30;1.00;;;;;;4996426;28;20449;-71
2023/03/09 08:42:39;;;;;;;0.50;0.20;;;10.40;1.00;;;;;;4997091;28;20465;-71
2023/03/09 08:45:10;;;;;;;0.50;0.30;;;10.40;1.00;;;;;;4997592;28;20497;-72
2023/03/09 08:47:37;;;;;;;0.50;0.10;;;10.50;1.00;;;;;;4996585;28;20450;-71
2023/03/09 08:50:06;;;;;;;0.50;0.20;;;10.60;1.00;;;;;;4994423;28;20453;-71
2023/03/09 08:52:37;;;;;;;1.17;0.50;;;10.60;1.00;;;;;;4992458;28;20444;-71
2023/03/09 08:55:07;;;;;;;0.60;0.60;;;10.60;1.00;;;;;;4992369;28;20454;-72
2023/03/09 08:57:35;;;;;;;0.50;0.20;;;10.70;1.00;;;;;;4992783;28;20445;-72
2023/03/09 09:00:04;;;;;;;0.50;0.10;;;10.60;1.00;;;;;;4993009;28;20452;-72
2023/03/09 09:02:33;;;;;;;0.50;0.10;;;10.60;1.00;;;;;;4993366;28;20449;-73
2023/03/09 09:05:01;;;;;;;0.50;0.10;;;10.60;1.00;;;;;;4992406;28;21017;-71
2023/03/09 09:07:30;;;;;;;0.53;0.23;;;10.60;1.00;;;;;;4993656;28;20862;-72
2023/03/09 09:09:59;;;;;;;0.50;0.10;;;10.60;1.00;;;;;;4992934;28;20521;-71
2023/03/09 09:12:28;;;;;;;1.17;0.90;;;10.60;1.00;;;;;;4992680;28;20448;-70
2023/03/09 09:14:56;;;;;;;0.50;0.10;;;10.50;1.00;;;;;;5014271;28;21085;-71
2023/03/09 09:17:23;;;;;;;0.83;0.83;;;10.50;1.00;;;;;;5019585;28;20448;-72
2023/03/09 09:19:52;;;;;;;0.80;0.50;;;10.50;1.00;;;;;;5018009;28;21010;-71
2023/03/09 09:22:20;;;;;;;0.90;0.43;;;10.60;1.00;;;;;;5016618;28;20444;-71
2023/03/09 09:24:49;;;;;;;1.20;1.00;;;10.60;1.00;;;;;;5015628;28;20493;-71
2023/03/09 09:27:17;;;;;;;0.50;0.20;;;10.60;1.00;;;;;;5015616;28;20443;-73
2023/03/09 09:29:45;;;;;;;10.63;2.10;;;10.60;1.00;;;;;;5015380;28;20460;-73
2023/03/09 09:32:12;;;;;;;0.50;0.20;;;10.70;1.00;;;;;;5015136;28;20533;-71
2023/03/09 09:34:41;;;;;;;0.70;0.50;;;10.90;1.00;;;;;;5015005;28;20507;-72
2023/03/09 09:37:11;;;;;;;0.50;0.10;;;10.90;1.00;;;;;;5015523;28;20459;-72
2023/03/09 09:39:39;;;;;;;0.60;0.30;;;11.10;1.00;;;;;;5015422;28;20460;-72
2023/03/09 09:42:15;;;;;;;0.50;0.17;;;11.10;1.00;;;;;;5015243;28;20447;-72
2023/03/09 09:44:47;;;;;;;0.50;0.10;;;11.30;1.00;;;;;;5014486;28;20514;-72
2023/03/09 09:47:19;;;;;;;0.50;0.10;;;11.30;1.00;;;;;;5015169;28;20449;-72
2023/03/09 09:49:50;;;;;;;0.50;0.10;;;11.20;1.00;;;;;;5015583;28;20467;-73
2023/03/09 09:52:33;;;;;;;0.60;0.23;;;11.20;1.00;;;;;;5017829;28;20452;-70
2023/03/09 09:55:12;;;;;;;0.60;0.20;;;11.10;1.00;;;;;;5019893;28;20912;-70
2023/03/09 09:57:41;;;;;;;0.70;0.30;;;11.10;1.00;;;;;;5020876;28;20445;-71
2023/03/09 10:00:15;;;;;;;1.47;0.47;;;11.10;1.00;;;;;;5016526;28;20595;-72
2023/03/09 10:02:58;;;;;;;1.23;0.57;;;11.10;1.00;;;;;;5015261;28;20838;-71
2023/03/09 10:05:31;;;;;;;0.57;0.27;;;11.10;1.00;;;;;;5014388;28;20515;-72
2023/03/09 10:08:12;;;;;;;0.60;0.30;;;11.10;1.00;;;;;;5014722;28;20449;-71
2023/03/09 10:10:42;;;;;;;0.60;0.30;;;11.20;1.00;;;;;;5015336;28;20448;-72
2023/03/09 10:13:16;;;;;;;0.50;0.10;;;11.20;1.00;;;;;;5014921;28;20444;-71
2023/03/09 10:15:46;;;;;;;2.10;1.70;;;11.30;1.00;;;;;;5014033;28;20469;-72
2023/03/09 10:18:23;;;;;;;0.50;0.10;;;11.30;1.00;;;;;;5014343;28;20457;-74
2023/03/09 10:20:52;;;;;;;0.83;0.53;;;11.40;1.00;;;;;;5014618;28;20813;-73
2023/03/09 10:26:42;;;;;;;0.80;0.27;;;11.50;1.00;;;;;;4994612;28;20520;-76
2023/03/09 10:29:19;;;;;;;1.90;0.43;;;11.50;1.00;;;;;;4985441;28;20454;-76
2023/03/09 10:31:56;;;;;;;0.50;0.10;;;11.50;1.00;;;;;;4994633;28;20441;-76
2023/03/09 10:34:26;;;;;;;0.60;0.23;;;11.60;1.00;;;;;;4994369;28;20447;-76
2023/03/09 10:37:00;;;;;;;0.70;0.30;;;11.60;1.00;;;;;;4995497;28;20459;-75
2023/03/09 10:39:35;;;;;;;2.67;1.03;;;11.60;1.00;;;;;;4997054;28;20501;-75
2023/03/09 10:42:12;;;;;;;0.60;0.20;;;;;;;;;;4996347;28;20443;-74
2023/03/09 10:44:43;;;;;;;0.50;0.10;;;11.60;1.00;;;;;;4995109;28;20585;-74
2023/03/09 10:47:11;;;;;;;3.03;0.40;;;11.60;1.00;;;;;;4994557;28;20581;-74
2023/03/09 10:49:39;;;;;;;0.60;0.20;;;11.60;1.00;;;;;;4994529;28;20449;-77
2023/03/09 10:52:18;;;;;;;2.70;0.73;;;11.70;1.00;;;;;;4995216;28;20526;-76
2023/03/09 10:54:47;;;;;;;1.90;0.70;;;11.70;1.00;;;;;;4994251;28;20470;-74
2023/03/09 10:57:25;;;;;;;0.70;0.40;;;;;;;;;;4995472;28;20464;-75
2023/03/09 10:59:58;;;;;;;0.60;0.40;;;;;;;;;;4996575;28;20459;-75
2023/03/09 11:02:35;;;;;;;11.63;1.17;;;11.90;1.00;;;;;;4996152;28;20493;-74
2023/03/09 11:05:14;;;;;;;0.50;0.10;;;11.90;1.00;;;;;;4994278;28;20569;-75
2023/03/09 11:07:42;;;;;;;0.50;0.20;;;;;;;;;;4994665;28;20451;-74
2023/03/09 11:10:26;;;;;;;2.13;0.47;;;11.90;1.00;;;;;;4993883;28;20789;-75
2023/03/09 11:12:54;;;;;;;0.50;0.10;;;11.90;1.00;;;;;;4994060;28;20465;-74
2023/03/09 11:15:29;;;;;;;0.60;0.40;;;12.00;1.00;;;;;;4994154;28;20530;-72
2023/03/09 11:17:58;;;;;;;0.60;0.10;;;12.00;1.00;;;;;;4994537;28;20443;-75
2023/03/09 11:20:32;;;;;;;0.50;0.20;;;12.10;1.00;;;;;;4994409;28;20819;-73
2023/03/09 11:23:29;;;;;;;0.60;0.37;;;12.20;1.00;;;;;;5003746;28;20448;-72
2023/03/09 11:26:13;;;;;;;0.50;0.10;;;12.20;1.00;;;;;;4978401;28;20502;-73
2023/03/09 11:28:48;;;;;;;1.17;0.47;;;12.20;1.00;;;;;;5013581;28;20450;-72
2023/03/09 11:31:17;;;;;;;3.13;1.13;;;12.30;1.00;;;;;;5014144;28;20450;-72
2023/03/09 11:33:48;;;;;;;0.87;0.30;;;12.30;1.00;;;;;;5014117;28;20449;-73
2023/03/09 11:36:20;;;;;;;0.57;0.10;;;12.30;1.00;;;;;;5014191;28;20473;-71
2023/03/09 11:38:48;;;;;;;0.83;0.30;;;12.30;1.00;;;;;;5012406;28;20446;-72
2023/03/09 11:41:24;;;;;;;0.60;0.10;;;12.30;1.00;;;;;;5013325;28;20788;-72
2023/03/09 11:43:56;;;;;;;1.37;0.60;;;12.30;1.00;;;;;;5013490;28;20841;-72
2023/03/09 11:46:25;;;;;;;0.60;0.20;;;12.30;1.00;;;;;;5013545;28;20493;-74
2023/03/09 11:49:00;;;;;;;0.60;0.20;;;12.40;1.00;;;;;;5014628;28;20480;-71
2023/03/09 11:51:31;;;;;;;0.60;0.37;;;12.40;1.00;;;;;;5015283;28;20446;-71
2023/03/09 11:54:15;;;;;;;0.77;0.47;;;12.40;1.00;;;;;;5014749;28;21005;-70
2023/03/09 11:56:46;;;;;;;4.27;1.40;;;12.40;1.00;;;;;;5013965;28;21179;-72
2023/03/09 11:59:18;;;;;;;0.50;0.10;;;12.40;1.00;;;;;;5013055;28;20442;-72
2023/03/09 12:01:50;;;;;;;2.20;2.10;;;12.50;1.00;;;;;;5017296;28;20454;-72
2023/03/09 12:04:19;;;;;;;0.80;0.37;;;;;;;;;;5021439;28;20457;-71
2023/03/09 12:06:52;;;;;;;0.70;0.33;;;12.50;1.00;;;;;;5021396;28;20899;-72
2023/03/09 12:09:27;;;;;;;0.80;0.40;;;12.50;1.00;;;;;;5015242;28;20497;-74
2023/03/09 12:12:00;;;;;;;0.60;0.20;;;12.60;1.00;;;;;;5012442;28;20445;-72
2023/03/09 12:14:33;;;;;;;0.60;0.27;;;12.60;1.00;;;;;;5012129;28;20448;-75
2023/03/09 12:17:12;;;;;;;0.60;0.10;;;12.50;1.00;;;;;;5011880;28;20533;-71
2023/03/09 12:19:46;;;;;;;0.63;0.27;;;12.60;1.00;;;;;;5012092;28;21227;-72
2023/03/09 12:22:18;;;;;;;0.80;0.30;;;12.60;1.00;;;;;;5009266;28;20463;-72
2023/03/09 12:24:53;;;;;;;1.87;0.60;;;12.60;1.00;;;;;;4992337;28;20489;-74
2023/03/09 12:27:25;;;;;;;0.60;0.10;;;12.50;1.00;;;;;;4993169;28;20950;-73
2023/03/09 12:29:55;;;;;;;0.60;0.20;;;12.50;1.00;;;;;;4993704;28;20447;-72
2023/03/09 12:32:40;;;;;;;0.57;0.33;;;12.40;1.00;;;;;;4993293;28;20442;-72
2023/03/09 12:35:14;;;;;;;0.50;0.10;;;12.50;1.00;;;;;;4994035;28;20468;-72
2023/03/09 12:38:05;;;;;;;1.23;0.50;;;12.50;1.00;;;;;;4994448;28;20444;-73
2023/03/09 12:40:39;;;;;;;0.60;0.40;;;12.50;1.00;;;;;;4995285;28;20449;-71
2023/03/09 12:43:42;;;;;;;3.53;1.90;;;12.60;1.00;;;;;;4994176;28;20446;-72
2023/03/09 12:46:40;;;;;;;0.60;0.10;;;12.60;1.00;;;;;;4992988;28;20485;-72
2023/03/09 12:49:14;;;;;;;0.60;0.10;;;12.60;1.00;;;;;;4985889;28;20546;-70
2023/03/09 12:51:48;;;;;;;0.70;0.57;;;12.60;1.00;;;;;;4997741;28;20503;-72
2023/03/09 12:54:22;;;;;;;0.60;0.40;;;12.60;1.00;;;;;;4996858;28;20452;-70
2023/03/09 12:56:52;;;;;;;0.50;0.10;;;12.60;1.00;;;;;;4996499;28;20438;-71
2023/03/09 12:59:27;;;;;;;0.60;0.10;;;12.60;1.00;;;;;;4996970;28;20795;-73
2023/03/09 13:01:56;;;;;;;1.23;0.60;;;12.60;1.00;;;;;;4996224;28;20552;-72
2023/03/09 13:04:26;;;;;;;2.83;0.60;;;12.60;1.00;;;;;;4995806;28;20456;-74
2023/03/09 13:06:58;;;;;;;0.70;0.60;;;12.60;1.00;;;;;;4996323;28;20596;-71
2023/03/09 13:09:36;;;;;;;2.30;0.83;;;12.60;1.00;;;;;;4995950;28;20456;-73
2023/03/09 13:12:15;;;;;;;2.10;0.67;;;12.70;1.00;;;;;;4995898;28;21009;-72
2023/03/09 13:15:21;;;;;;;0.80;0.47;;;12.80;1.00;;;;;;4995518;28;20465;-71
2023/03/09 13:18:23;;;;;;;1.10;0.80;;;12.80;1.00;;;;;;4995994;28;20441;-73
2023/03/09 13:20:51;;;;;;;0.60;0.20;;;12.90;1.00;;;;;;4995731;28;20449;-71
2023/03/09 13:23:21;;;;;;;0.80;0.73;;;13.00;1.00;;;;;;5007081;28;20442;-73
2023/03/09 13:25:51;;;;;;;0.60;0.20;;;13.20;1.00;;;;;;5014922;28;20483;-73
2023/03/09 13:28:46;;;;;;;0.80;0.40;;;13.30;1.00;;;;;;5015381;28;20442;-72
2023/03/09 13:31:26;;;;;;;1.27;0.50;;;13.30;1.00;;;;;;5015025;28;20443;-73
2023/03/09 13:33:55;;;;;;;0.67;0.30;;;13.40;1.00;;;;;;5014617;28;20833;-72
2023/03/09 13:36:24;;;;;;;0.70;0.30;;;13.50;1.00;;;;;;5014610;28;20967;-71
2023/03/09 13:38:56;;;;;;;0.60;0.20;;;13.50;1.00;;;;;;5014897;28;20855;-72
2023/03/09 13:41:27;;;;;;;1.23;0.63;;;13.60;1.00;;;;;;5014755;28;20447;-72
2023/03/09 13:43:55;;;;;;;0.60;0.10;;;13.60;1.00;;;;;;5015047;28;20442;-72
2023/03/09 13:46:28;;;;;;;1.20;0.33;;;13.60;1.00;;;;;;5014537;28;20482;-72
2023/03/09 13:49:01;;;;;;;2.53;1.30;;;13.60;1.00;;;;;;5014971;28;20446;-72
2023/03/09 13:51:44;;;;;;;2.10;0.20;;;13.70;1.00;;;;;;5015127;28;20662;-71
2023/03/09 13:54:21;;;;;;;1.73;0.50;;;13.80;1.00;;;;;;5016200;28;20504;-70
2023/03/09 13:57:02;;;;;;;0.60;0.40;;;13.70;1.00;;;;;;5015286;28;20852;-72
2023/03/09 13:59:44;;;;;;;0.70;0.30;;;13.80;1.00;;;;;;5015689;28;20502;-72
2023/03/09 14:02:13;;;;;;;2.10;0.57;;;13.80;1.00;;;;;;5014002;28;20461;-72
2023/03/09 14:04:49;;;;;;;8.27;0.30;;;13.90;1.00;;;;;;5014795;28;20464;-73
2023/03/09 14:07:21;;;;;;;0.70;0.57;;;13.80;1.00;;;;;;5014888;28;20562;-71
2023/03/09 14:09:55;;;;;;;1.53;1.37;;;13.80;1.00;;;;;;5014638;28;20451;-73
2023/03/09 14:12:29;;;;;;;0.80;0.57;;;13.80;1.00;;;;;;5014848;28;20473;-72
2023/03/09 14:14:59;;;;;;;2.93;0.63;;;13.80;1.00;;;;;;5014003;28;20488;-72
2023/03/09 14:17:30;;;;;;;0.60;0.30;;;13.70;1.00;;;;;;5014660;28;20443;-73
2023/03/09 14:19:57;;;;;;;0.60;0.20;;;13.70;1.00;;;;;;5014491;28;20465;-71
2023/03/09 14:22:28;;;;;;;0.93;0.50;;;13.70;1.00;;;;;;5010499;28;20444;-71
2023/03/09 14:24:56;;;;;;;0.80;0.53;;;13.60;1.00;;;;;;4996192;28;20494;-71
2023/03/09 14:27:30;;;;;;;2.50;1.30;;;13.60;1.00;;;;;;4995481;28;20483;-70
2023/03/09 14:29:59;;;;;;;0.60;0.20;;;13.50;1.00;;;;;;4994795;28;20440;-71
2023/03/09 14:32:29;;;;;;;0.80;0.43;;;13.50;1.00;;;;;;4995138;28;20517;-71
2023/03/09 14:34:59;;;;;;;0.60;0.43;;;13.20;1.00;;;;;;4994922;28;20470;-75
2023/03/09 14:37:28;;;;;;;1.00;0.80;;;13.10;1.00;;;;;;4994797;28;20449;-70
2023/03/09 14:39:58;;;;;;;9.57;1.77;;;13.10;1.00;;;;;;4994461;28;20453;-72
2023/03/09 14:42:30;;;;;;;0.70;0.40;;;13.10;1.00;;;;;;4994278;28;20841;-71
2023/03/09 14:45:09;;;;;;;0.60;0.10;;;13.20;1.00;;;;;;4994119;28;20998;-72
2023/03/09 14:47:40;;;;;;;0.60;0.10;;;13.20;1.00;;;;;;4996600;28;20491;-73
2023/03/09 14:50:14;;;;;;;0.60;0.20;;;13.20;1.00;;;;;;4996705;28;20456;-71
2023/03/09 14:52:44;;;;;;;0.93;0.77;;;13.30;1.00;;;;;;4997609;28;20451;-72
2023/03/09 14:55:15;;;;;;;0.60;0.10;;;13.30;1.00;;;;;;4995523;28;20479;-72
2023/03/09 14:57:43;;;;;;;0.60;0.20;;;13.30;1.00;;;;;;4994489;28;20795;-71
2023/03/09 15:00:15;;;;;;;0.60;0.10;;;13.30;1.00;;;;;;4994148;28;20491;-73
2023/03/09 15:02:45;;;;;;;0.60;0.30;;;13.40;1.00;;;;;;4993773;28;20448;-72
2023/03/09 15:05:16;;;;;;;0.60;0.10;;;13.50;1.00;;;;;;4993795;28;20458;-72
2023/03/09 15:07:45;;;;;;;2.00;0.77;;;13.50;1.00;;;;;;4993797;28;20890;-73
2023/03/09 15:10:13;;;;;;;0.60;0.10;;;13.60;1.00;;;;;;4993514;28;20450;-72
2023/03/09 15:12:43;;;;;;;0.60;0.10;;;13.70;1.00;;;;;;4993383;28;20452;-72
2023/03/09 15:15:17;;;;;;;0.70;0.33;;;13.90;1.00;;;;;;4992861;28;20486;-71
2023/03/09 15:17:46;;;;;;;1.43;1.33;;;13.90;1.00;;;;;;4993350;28;20443;-71
2023/03/09 15:20:16;;;;;;;0.83;0.53;;;14.00;1.00;;;;;;4993160;28;20455;-70
2023/03/09 15:22:46;;;;;;;1.33;0.83;;;14.00;1.00;;;;;;5000254;28;20432;-72
2023/03/09 15:25:15;;;;;;;0.60;0.10;;;13.80;1.00;;;;;;5012080;28;20474;-72
2023/03/09 15:27:43;;;;;;;0.60;0.10;;;13.80;1.00;;;;;;5013107;28;20486;-72
2023/03/09 15:30:13;;;;;;;0.60;0.10;;;13.80;1.00;;;;;;5012665;28;20526;-71
2023/03/09 15:32:41;;;;;;;0.60;0.10;;;13.80;1.00;;;;;;5012590;28;20539;-73
2023/03/09 15:35:13;;;;;;;6.00;0.50;;;13.80;1.00;;;;;;5012213;28;20563;-72
2023/03/09 15:37:43;;;;;;;0.63;0.40;;;13.80;1.00;;;;;;5012733;28;20447;-72
2023/03/09 15:40:12;;;;;;;3.93;0.63;;;13.80;1.00;;;;;;5012697;28;20533;-72
2023/03/09 15:42:41;;;;;;;0.60;0.10;;;13.70;1.00;;;;;;5012501;28;20867;-73
2023/03/09 15:45:11;;;;;;;0.60;0.20;;;13.80;1.00;;;;;;5012200;28;20525;-73
2023/03/09 15:47:38;;;;;;;0.60;0.27;;;13.80;1.00;;;;;;5012790;28;20498;-72
2023/03/09 15:50:08;;;;;;;0.60;0.20;;;13.90;1.00;;;;;;5012896;28;20454;-71
2023/03/09 15:52:38;;;;;;;5.17;4.07;;;13.90;1.00;;;;;;5012493;28;20443;-71
2023/03/09 15:55:07;;;;;;;0.60;0.10;;;13.90;1.00;;;;;;5012257;28;20534;-73
2023/03/09 15:57:35;;;;;;;2.30;2.13;;;13.90;1.00;;;;;;5012381;28;20494;-73
2023/03/09 16:00:04;;;;;;;0.60;0.20;;;14.00;1.00;;;;;;5012727;28;20514;-73
2023/03/09 16:02:33;;;;;;;0.60;0.10;;;14.00;1.00;;;;;;5012389;28;20958;-74
2023/03/09 16:05:01;;;;;;;0.70;0.30;;;14.20;1.00;;;;;;5011923;28;20463;-73
2023/03/09 16:07:29;;;;;;;0.60;0.20;;;14.20;1.00;;;;;;5012457;28;20512;-72
2023/03/09 16:09:59;;;;;;;1.07;0.50;;;14.20;1.00;;;;;;5012311;28;20525;-73
2023/03/09 16:12:27;;;;;;;0.63;0.23;;;14.10;1.00;;;;;;5012315;28;20455;-73
2023/03/09 16:14:54;;;;;;;0.60;0.20;;;14.30;1.00;;;;;;5012605;28;20514;-71
2023/03/09 16:17:22;;;;;;;0.80;0.47;;;14.30;1.00;;;;;;5014916;28;20852;-71
2023/03/09 16:19:51;;;;;;;0.60;0.10;;;14.40;1.00;;;;;;5017322;28;20443;-71
2023/03/09 16:22:19;;;;;;;0.60;0.10;;;14.40;1.00;;;;;;5013004;28;20746;-71
2023/03/09 16:24:47;;;;;;;0.60;0.10;;;14.20;1.00;;;;;;5006508;28;20987;-71
2023/03/09 16:27:16;;;;;;;0.60;0.10;;;14.20;1.00;;;;;;5010790;28;20456;-71
2023/03/09 16:29:44;;;;;;;2.60;2.40;;;14.10;1.00;;;;;;5013055;28;20542;-72
2023/03/09 16:32:12;;;;;;;0.70;0.40;;;14.00;1.00;;;;;;5012355;28;20469;-72
2023/03/09 16:34:40;;;;;;;0.60;0.10;;;13.80;1.00;;;;;;5012300;28;20452;-72
2023/03/09 16:37:07;;;;;;;0.60;0.10;;;13.80;1.00;;;;;;5005296;28;20527;-73
2023/03/09 16:39:35;;;;;;;0.60;0.10;;;13.80;1.00;;;;;;5007090;28;20467;-73
2023/03/09 16:42:03;;;;;;;0.60;0.10;;;13.80;1.00;;;;;;4992652;28;20442;-72
2023/03/09 16:44:33;;;;;;;0.80;0.73;;;13.70;1.00;;;;;;4992539;28;20452;-72
2023/03/09 16:47:00;;;;;;;0.60;0.10;;;13.70;1.00;;;;;;5007361;28;20446;-73
2023/03/09 16:49:28;;;;;;;0.60;0.30;;;13.60;1.00;;;;;;4995832;28;20930;-73
2023/03/09 16:51:56;;;;;;;0.60;0.10;;;13.60;1.00;;;;;;5006502;28;20779;-73
2023/03/09 16:54:24;;;;;;;0.60;0.10;;;13.50;1.00;;;;;;5000876;28;20819;-72
2023/03/09 16:56:53;;;;;;;0.60;0.20;;;13.50;1.00;;;;;;4999027;28;20440;-73
2023/03/09 16:59:21;;;;;;;0.60;0.17;;;13.40;1.00;;;;;;5009081;28;20439;-74
2023/03/09 17:01:50;;;;;;;0.60;0.10;;;13.40;1.00;;;;;;4996822;28;20455;-74
2023/03/09 17:04:18;;;;;;;0.97;0.60;;;13.40;1.00;;;;;;5003097;28;20445;-73
2023/03/09 17:06:46;;;;;;;0.60;0.10;;;13.30;1.00;;;;;;5003406;28;20487;-73
2023/03/09 17:09:14;;;;;;;0.60;0.10;;;13.40;1.00;;;;;;5011618;28;20482;-73
2023/03/09 17:11:42;;;;;;;0.60;0.20;;;13.40;1.00;;;;;;5008512;28;20492;-73
2023/03/09 17:14:13;;;;;;;0.60;0.10;;;13.40;1.00;;;;;;4992418;28;20487;-74
2023/03/09 17:16:42;;;;;;;0.60;0.10;;;;;;;;;;4993690;28;20498;-76
2023/03/09 17:19:17;;;;;;;0.60;0.10;;;;;;;;;;4992868;28;20433;-72
2023/03/09 17:21:46;;;;;;;0.60;0.10;;;13.50;1.00;;;;;;4992003;28;20452;-72
2023/03/09 17:24:15;;;;;;;0.60;0.17;;;;;;;;;;5012699;28;20538;-74
2023/03/09 17:26:43;;;;;;;13.87;0.77;;;13.40;1.00;;;;;;5004830;28;20974;-71